sensor_id;sensor_type;location;lat;lon;timestamp;P1;durP1;ratioP1;P2;durP2;ratioP2
25435;SDS011;13363;52.772;-3.890;2022-12-20T00:01:12;9.03;;;2.20;;
25435;SDS011;13363;52.772;-3.890;2022-12-20T00:03:40;8.93;;;1.97;;
25435;SDS011;13363;52.772;-3.890;2022-12-20T00:06:06;10.17;;;2.20;;
25435;SDS011;13363;52.772;-3.890;2022-12-20T00:08:33;11.13;;;2.20;;
25435;SDS011;13363;52.772;-3.890;2022-12-20T00:11:00;6.13;;;1.80;;
25435;SDS011;13363;52.772;-3.890;2022-12-20T00:13:27;8.90;;;1.80;;
25435;SDS011;13363;52.772;-3.890;2022-12-20T00:16:03;7.03;;;1.90;;
25435;SDS011;13363;52.772;-3.890;2022-12-20T00:18:33;9.63;;;1.83;;
25435;SDS011;13363;52.772;-3.890;2022-12-20T00:21:00;5.27;;;1.77;;
25435;SDS011;13363;52.772;-3.890;2022-12-20T00:23:27;12.37;;;2.70;;
25435;SDS011;13363;52.772;-3.890;2022-12-20T00:26:12;8.70;;;1.73;;
25435;SDS011;13363;52.772;-3.890;2022-12-20T00:28:40;8.17;;;1.90;;
25435;SDS011;13363;52.772;-3.890;2022-12-20T00:31:10;8.40;;;1.93;;
25435;SDS011;13363;52.772;-3.890;2022-12-20T00:33:38;6.97;;;1.43;;
25435;SDS011;13363;52.772;-3.890;2022-12-20T00:36:05;9.50;;;2.00;;
25435;SDS011;13363;52.772;-3.890;2022-12-20T00:38:32;3.83;;;1.47;;
25435;SDS011;13363;52.772;-3.890;2022-12-20T00:41:08;10.67;;;1.70;;
25435;SDS011;13363;52.772;-3.890;2022-12-20T00:43:37;7.30;;;1.90;;
25435;SDS011;13363;52.772;-3.890;2022-12-20T00:46:04;7.07;;;2.03;;
25435;SDS011;13363;52.772;-3.890;2022-12-20T00:48:31;11.43;;;2.10;;
25435;SDS011;13363;52.772;-3.890;2022-12-20T00:50:58;11.00;;;1.90;;
25435;SDS011;13363;52.772;-3.890;2022-12-20T00:53:25;6.37;;;2.00;;
25435;SDS011;13363;52.772;-3.890;2022-12-20T00:55:52;9.47;;;1.80;;
25435;SDS011;13363;52.772;-3.890;2022-12-20T00:58:18;7.07;;;2.37;;
25435;SDS011;13363;52.772;-3.890;2022-12-20T01:00:44;9.27;;;1.60;;
25435;SDS011;13363;52.772;-3.890;2022-12-20T01:03:10;12.40;;;2.23;;
25435;SDS011;13363;52.772;-3.890;2022-12-20T01:05:36;10.80;;;1.87;;
25435;SDS011;13363;52.772;-3.890;2022-12-20T01:08:02;12.27;;;1.93;;
25435;SDS011;13363;52.772;-3.890;2022-12-20T01:10:28;12.13;;;2.37;;
25435;SDS011;13363;52.772;-3.890;2022-12-20T01:12:54;9.33;;;2.07;;
25435;SDS011;13363;52.772;-3.890;2022-12-20T01:15:20;7.83;;;1.80;;
25435;SDS011;13363;52.772;-3.890;2022-12-20T01:17:46;9.23;;;2.17;;
25435;SDS011;13363;52.772;-3.890;2022-12-20T01:20:12;7.03;;;2.10;;
25435;SDS011;13363;52.772;-3.890;2022-12-20T01:22:38;7.50;;;2.20;;
25435;SDS011;13363;52.772;-3.890;2022-12-20T01:25:04;6.87;;;2.20;;
25435;SDS011;13363;52.772;-3.890;2022-12-20T01:27:30;17.17;;;2.53;;
25435;SDS011;13363;52.772;-3.890;2022-12-20T01:29:56;6.77;;;1.53;;
25435;SDS011;13363;52.772;-3.890;2022-12-20T01:32:22;7.20;;;1.70;;
25435;SDS011;13363;52.772;-3.890;2022-12-20T01:34:48;5.27;;;1.73;;
25435;SDS011;13363;52.772;-3.890;2022-12-20T01:37:13;9.63;;;1.70;;
25435;SDS011;13363;52.772;-3.890;2022-12-20T01:39:39;9.27;;;2.30;;
25435;SDS011;13363;52.772;-3.890;2022-12-20T01:42:05;4.20;;;1.60;;
25435;SDS011;13363;52.772;-3.890;2022-12-20T01:46:57;10.87;;;2.20;;
25435;SDS011;13363;52.772;-3.890;2022-12-20T01:54:32;6.03;;;1.90;;
25435;SDS011;13363;52.772;-3.890;2022-12-20T01:57:10;14.83;;;3.27;;
25435;SDS011;13363;52.772;-3.890;2022-12-20T01:59:41;10.83;;;2.47;;
25435;SDS011;13363;52.772;-3.890;2022-12-20T02:02:10;11.27;;;2.10;;
25435;SDS011;13363;52.772;-3.890;2022-12-20T02:04:36;12.63;;;3.10;;
25435;SDS011;13363;52.772;-3.890;2022-12-20T02:07:03;10.87;;;1.90;;
25435;SDS011;13363;52.772;-3.890;2022-12-20T02:09:30;12.47;;;2.47;;
25435;SDS011;13363;52.772;-3.890;2022-12-20T02:12:17;12.77;;;2.20;;
25435;SDS011;13363;52.772;-3.890;2022-12-20T02:14:54;6.47;;;1.73;;
25435;SDS011;13363;52.772;-3.890;2022-12-20T02:20:57;5.93;;;1.70;;
25435;SDS011;13363;52.772;-3.890;2022-12-20T02:32:19;13.20;;;2.57;;
25435;SDS011;13363;52.772;-3.890;2022-12-20T02:35:08;10.13;;;1.97;;
25435;SDS011;13363;52.772;-3.890;2022-12-20T02:37:45;10.13;;;2.03;;
25435;SDS011;13363;52.772;-3.890;2022-12-20T02:40:16;12.57;;;3.20;;
25435;SDS011;13363;52.772;-3.890;2022-12-20T02:42:47;11.53;;;2.30;;
25435;SDS011;13363;52.772;-3.890;2022-12-20T02:45:16;16.37;;;3.03;;
25435;SDS011;13363;52.772;-3.890;2022-12-20T02:47:53;12.97;;;2.17;;
25435;SDS011;13363;52.772;-3.890;2022-12-20T02:50:30;16.67;;;2.37;;
25435;SDS011;13363;52.772;-3.890;2022-12-20T02:53:14;11.40;;;2.17;;
25435;SDS011;13363;52.772;-3.890;2022-12-20T02:55:44;7.73;;;2.00;;
25435;SDS011;13363;52.772;-3.890;2022-12-20T03:01:11;12.03;;;2.77;;
25435;SDS011;13363;52.772;-3.890;2022-12-20T03:03:47;15.97;;;3.13;;
25435;SDS011;13363;52.772;-3.890;2022-12-20T03:06:13;9.37;;;2.10;;
25435;SDS011;13363;52.772;-3.890;2022-12-20T03:08:39;12.10;;;2.73;;
25435;SDS011;13363;52.772;-3.890;2022-12-20T03:11:05;11.13;;;2.67;;
25435;SDS011;13363;52.772;-3.890;2022-12-20T03:13:31;8.20;;;2.77;;
25435;SDS011;13363;52.772;-3.890;2022-12-20T03:15:57;6.77;;;2.67;;
25435;SDS011;13363;52.772;-3.890;2022-12-20T03:18:23;12.97;;;2.63;;
25435;SDS011;13363;52.772;-3.890;2022-12-20T03:20:48;13.67;;;2.47;;
25435;SDS011;13363;52.772;-3.890;2022-12-20T03:23:14;10.97;;;2.33;;
25435;SDS011;13363;52.772;-3.890;2022-12-20T03:25:40;9.93;;;2.30;;
25435;SDS011;13363;52.772;-3.890;2022-12-20T03:28:06;7.97;;;1.97;;
25435;SDS011;13363;52.772;-3.890;2022-12-20T03:30:32;17.23;;;2.40;;
25435;SDS011;13363;52.772;-3.890;2022-12-20T03:32:58;11.20;;;2.70;;
25435;SDS011;13363;52.772;-3.890;2022-12-20T03:35:24;11.40;;;2.47;;
25435;SDS011;13363;52.772;-3.890;2022-12-20T03:37:49;7.03;;;2.20;;
25435;SDS011;13363;52.772;-3.890;2022-12-20T03:40:15;7.17;;;2.07;;
25435;SDS011;13363;52.772;-3.890;2022-12-20T03:42:41;8.80;;;1.93;;
25435;SDS011;13363;52.772;-3.890;2022-12-20T03:45:07;10.87;;;2.77;;
25435;SDS011;13363;52.772;-3.890;2022-12-20T03:47:34;12.17;;;2.47;;
25435;SDS011;13363;52.772;-3.890;2022-12-20T03:49:59;16.53;;;2.30;;
25435;SDS011;13363;52.772;-3.890;2022-12-20T03:52:25;12.03;;;2.90;;
25435;SDS011;13363;52.772;-3.890;2022-12-20T03:54:51;12.93;;;2.70;;
25435;SDS011;13363;52.772;-3.890;2022-12-20T03:57:17;5.17;;;2.17;;
25435;SDS011;13363;52.772;-3.890;2022-12-20T03:59:43;11.47;;;3.17;;
25435;SDS011;13363;52.772;-3.890;2022-12-20T04:02:09;10.40;;;2.50;;
25435;SDS011;13363;52.772;-3.890;2022-12-20T04:04:34;10.50;;;3.90;;
25435;SDS011;13363;52.772;-3.890;2022-12-20T04:07:00;9.37;;;2.43;;
25435;SDS011;13363;52.772;-3.890;2022-12-20T04:09:26;10.03;;;2.03;;
25435;SDS011;13363;52.772;-3.890;2022-12-20T04:11:52;17.20;;;2.80;;
25435;SDS011;13363;52.772;-3.890;2022-12-20T04:14:18;12.83;;;2.80;;
25435;SDS011;13363;52.772;-3.890;2022-12-20T04:16:43;9.47;;;2.40;;
25435;SDS011;13363;52.772;-3.890;2022-12-20T04:19:10;12.80;;;3.93;;
25435;SDS011;13363;52.772;-3.890;2022-12-20T04:21:36;16.00;;;3.47;;
25435;SDS011;13363;52.772;-3.890;2022-12-20T04:24:02;12.57;;;2.67;;
25435;SDS011;13363;52.772;-3.890;2022-12-20T04:26:28;10.93;;;2.50;;
25435;SDS011;13363;52.772;-3.890;2022-12-20T04:28:55;7.10;;;2.40;;
25435;SDS011;13363;52.772;-3.890;2022-12-20T04:31:22;11.37;;;2.63;;
25435;SDS011;13363;52.772;-3.890;2022-12-20T04:33:48;11.80;;;2.97;;
25435;SDS011;13363;52.772;-3.890;2022-12-20T04:36:14;11.27;;;2.60;;
25435;SDS011;13363;52.772;-3.890;2022-12-20T04:38:40;12.13;;;2.93;;
25435;SDS011;13363;52.772;-3.890;2022-12-20T04:41:06;11.17;;;2.67;;
25435;SDS011;13363;52.772;-3.890;2022-12-20T04:43:32;7.20;;;2.47;;
25435;SDS011;13363;52.772;-3.890;2022-12-20T04:45:57;10.57;;;2.57;;
25435;SDS011;13363;52.772;-3.890;2022-12-20T04:48:24;14.73;;;2.67;;
25435;SDS011;13363;52.772;-3.890;2022-12-20T04:50:52;11.17;;;2.90;;
25435;SDS011;13363;52.772;-3.890;2022-12-20T04:53:19;12.60;;;3.17;;
25435;SDS011;13363;52.772;-3.890;2022-12-20T04:56:04;14.20;;;2.73;;
25435;SDS011;13363;52.772;-3.890;2022-12-20T04:58:30;18.73;;;2.70;;
25435;SDS011;13363;52.772;-3.890;2022-12-20T05:00:56;10.97;;;3.07;;
25435;SDS011;13363;52.772;-3.890;2022-12-20T05:03:23;14.83;;;2.53;;
25435;SDS011;13363;52.772;-3.890;2022-12-20T05:05:50;13.53;;;2.50;;
25435;SDS011;13363;52.772;-3.890;2022-12-20T05:08:16;15.07;;;3.57;;
25435;SDS011;13363;52.772;-3.890;2022-12-20T05:10:42;8.73;;;2.77;;
25435;SDS011;13363;52.772;-3.890;2022-12-20T05:13:08;12.83;;;3.03;;
25435;SDS011;13363;52.772;-3.890;2022-12-20T05:15:35;13.90;;;3.17;;
25435;SDS011;13363;52.772;-3.890;2022-12-20T05:18:01;5.60;;;2.40;;
25435;SDS011;13363;52.772;-3.890;2022-12-20T05:20:28;13.53;;;2.87;;
25435;SDS011;13363;52.772;-3.890;2022-12-20T05:22:54;17.33;;;3.67;;
25435;SDS011;13363;52.772;-3.890;2022-12-20T05:25:41;16.63;;;4.10;;
25435;SDS011;13363;52.772;-3.890;2022-12-20T05:28:28;12.40;;;2.87;;
25435;SDS011;13363;52.772;-3.890;2022-12-20T05:30:55;11.40;;;2.67;;
25435;SDS011;13363;52.772;-3.890;2022-12-20T05:33:21;14.10;;;2.83;;
25435;SDS011;13363;52.772;-3.890;2022-12-20T05:35:47;19.73;;;3.00;;
25435;SDS011;13363;52.772;-3.890;2022-12-20T05:38:12;15.27;;;3.13;;
25435;SDS011;13363;52.772;-3.890;2022-12-20T05:40:39;10.90;;;2.90;;
25435;SDS011;13363;52.772;-3.890;2022-12-20T05:43:05;11.13;;;2.80;;
25435;SDS011;13363;52.772;-3.890;2022-12-20T05:45:31;23.23;;;4.20;;
25435;SDS011;13363;52.772;-3.890;2022-12-20T05:47:58;11.33;;;3.10;;
25435;SDS011;13363;52.772;-3.890;2022-12-20T05:50:24;18.10;;;3.20;;
25435;SDS011;13363;52.772;-3.890;2022-12-20T05:52:50;18.13;;;3.93;;
25435;SDS011;13363;52.772;-3.890;2022-12-20T05:55:16;15.33;;;2.93;;
25435;SDS011;13363;52.772;-3.890;2022-12-20T05:57:42;10.90;;;3.20;;
25435;SDS011;13363;52.772;-3.890;2022-12-20T06:00:08;19.37;;;3.97;;
25435;SDS011;13363;52.772;-3.890;2022-12-20T06:02:34;16.83;;;3.47;;
25435;SDS011;13363;52.772;-3.890;2022-12-20T06:05:00;12.30;;;3.27;;
25435;SDS011;13363;52.772;-3.890;2022-12-20T06:07:27;12.40;;;3.27;;
25435;SDS011;13363;52.772;-3.890;2022-12-20T06:09:53;13.50;;;3.67;;
25435;SDS011;13363;52.772;-3.890;2022-12-20T06:12:20;15.53;;;3.53;;
25435;SDS011;13363;52.772;-3.890;2022-12-20T06:14:47;11.97;;;2.97;;
25435;SDS011;13363;52.772;-3.890;2022-12-20T06:17:13;11.70;;;3.93;;
25435;SDS011;13363;52.772;-3.890;2022-12-20T06:19:38;12.43;;;3.63;;
25435;SDS011;13363;52.772;-3.890;2022-12-20T06:22:06;23.63;;;4.17;;
25435;SDS011;13363;52.772;-3.890;2022-12-20T06:24:34;14.43;;;3.87;;
25435;SDS011;13363;52.772;-3.890;2022-12-20T06:27:01;13.63;;;3.00;;
25435;SDS011;13363;52.772;-3.890;2022-12-20T06:29:27;15.30;;;3.53;;
25435;SDS011;13363;52.772;-3.890;2022-12-20T06:31:54;9.70;;;3.30;;
25435;SDS011;13363;52.772;-3.890;2022-12-20T06:34:20;8.57;;;2.43;;
25435;SDS011;13363;52.772;-3.890;2022-12-20T06:36:46;9.97;;;2.37;;
25435;SDS011;13363;52.772;-3.890;2022-12-20T06:39:12;10.83;;;3.00;;
25435;SDS011;13363;52.772;-3.890;2022-12-20T06:41:39;14.70;;;2.90;;
25435;SDS011;13363;52.772;-3.890;2022-12-20T06:44:05;14.57;;;2.70;;
25435;SDS011;13363;52.772;-3.890;2022-12-20T06:46:31;16.10;;;3.53;;
25435;SDS011;13363;52.772;-3.890;2022-12-20T06:48:57;20.17;;;4.40;;
25435;SDS011;13363;52.772;-3.890;2022-12-20T06:51:23;16.57;;;3.13;;
25435;SDS011;13363;52.772;-3.890;2022-12-20T06:53:49;12.90;;;3.80;;
25435;SDS011;13363;52.772;-3.890;2022-12-20T06:56:15;15.30;;;2.90;;
25435;SDS011;13363;52.772;-3.890;2022-12-20T06:58:41;20.10;;;3.70;;
25435;SDS011;13363;52.772;-3.890;2022-12-20T07:01:07;12.77;;;3.60;;
25435;SDS011;13363;52.772;-3.890;2022-12-20T07:03:32;13.57;;;3.47;;
25435;SDS011;13363;52.772;-3.890;2022-12-20T07:05:58;16.57;;;3.60;;
25435;SDS011;13363;52.772;-3.890;2022-12-20T07:08:24;16.67;;;3.57;;
25435;SDS011;13363;52.772;-3.890;2022-12-20T07:10:50;16.03;;;2.73;;
25435;SDS011;13363;52.772;-3.890;2022-12-20T07:13:19;18.20;;;3.63;;
25435;SDS011;13363;52.772;-3.890;2022-12-20T07:15:45;13.97;;;2.73;;
25435;SDS011;13363;52.772;-3.890;2022-12-20T07:18:11;15.43;;;3.53;;
25435;SDS011;13363;52.772;-3.890;2022-12-20T07:20:36;17.33;;;3.30;;
25435;SDS011;13363;52.772;-3.890;2022-12-20T07:23:02;16.20;;;3.57;;
25435;SDS011;13363;52.772;-3.890;2022-12-20T07:25:28;12.97;;;3.20;;
25435;SDS011;13363;52.772;-3.890;2022-12-20T07:27:54;18.83;;;3.23;;
25435;SDS011;13363;52.772;-3.890;2022-12-20T07:30:20;9.03;;;2.07;;
25435;SDS011;13363;52.772;-3.890;2022-12-20T07:32:47;10.27;;;1.43;;
25435;SDS011;13363;52.772;-3.890;2022-12-20T07:35:13;11.83;;;3.57;;
25435;SDS011;13363;52.772;-3.890;2022-12-20T07:37:39;9.10;;;2.27;;
25435;SDS011;13363;52.772;-3.890;2022-12-20T07:40:05;14.37;;;3.63;;
25435;SDS011;13363;52.772;-3.890;2022-12-20T07:42:32;15.63;;;2.63;;
25435;SDS011;13363;52.772;-3.890;2022-12-20T07:44:58;6.87;;;2.20;;
25435;SDS011;13363;52.772;-3.890;2022-12-20T07:47:24;15.77;;;3.57;;
25435;SDS011;13363;52.772;-3.890;2022-12-20T07:49:50;11.83;;;2.93;;
25435;SDS011;13363;52.772;-3.890;2022-12-20T07:52:16;12.10;;;2.67;;
25435;SDS011;13363;52.772;-3.890;2022-12-20T07:54:46;11.93;;;2.90;;
25435;SDS011;13363;52.772;-3.890;2022-12-20T07:57:20;14.37;;;2.83;;
25435;SDS011;13363;52.772;-3.890;2022-12-20T07:59:53;16.10;;;3.40;;
25435;SDS011;13363;52.772;-3.890;2022-12-20T08:02:22;16.87;;;3.23;;
25435;SDS011;13363;52.772;-3.890;2022-12-20T08:04:56;16.63;;;3.07;;
25435;SDS011;13363;52.772;-3.890;2022-12-20T08:07:23;13.57;;;3.20;;
25435;SDS011;13363;52.772;-3.890;2022-12-20T08:09:49;17.37;;;3.60;;
25435;SDS011;13363;52.772;-3.890;2022-12-20T08:12:15;17.20;;;2.73;;
25435;SDS011;13363;52.772;-3.890;2022-12-20T08:14:43;13.67;;;3.13;;
25435;SDS011;13363;52.772;-3.890;2022-12-20T08:17:09;12.50;;;2.90;;
25435;SDS011;13363;52.772;-3.890;2022-12-20T08:19:35;13.57;;;2.70;;
25435;SDS011;13363;52.772;-3.890;2022-12-20T08:22:03;10.17;;;2.20;;
25435;SDS011;13363;52.772;-3.890;2022-12-20T08:24:29;6.20;;;2.10;;
25435;SDS011;13363;52.772;-3.890;2022-12-20T08:26:55;3.47;;;1.80;;
25435;SDS011;13363;52.772;-3.890;2022-12-20T08:29:21;10.93;;;2.40;;
25435;SDS011;13363;52.772;-3.890;2022-12-20T08:31:47;10.27;;;2.03;;
25435;SDS011;13363;52.772;-3.890;2022-12-20T08:34:13;12.30;;;2.07;;
25435;SDS011;13363;52.772;-3.890;2022-12-20T08:36:39;8.43;;;3.10;;
25435;SDS011;13363;52.772;-3.890;2022-12-20T08:39:05;13.57;;;3.23;;
25435;SDS011;13363;52.772;-3.890;2022-12-20T08:41:32;16.47;;;3.43;;
25435;SDS011;13363;52.772;-3.890;2022-12-20T08:44:00;7.67;;;2.33;;
25435;SDS011;13363;52.772;-3.890;2022-12-20T08:46:26;15.17;;;2.90;;
25435;SDS011;13363;52.772;-3.890;2022-12-20T08:48:52;20.17;;;3.40;;
25435;SDS011;13363;52.772;-3.890;2022-12-20T08:51:19;19.27;;;4.10;;
25435;SDS011;13363;52.772;-3.890;2022-12-20T08:53:50;14.87;;;2.60;;
25435;SDS011;13363;52.772;-3.890;2022-12-20T08:56:21;16.07;;;3.63;;
25435;SDS011;13363;52.772;-3.890;2022-12-20T08:58:47;15.77;;;3.30;;
25435;SDS011;13363;52.772;-3.890;2022-12-20T09:01:15;9.93;;;2.40;;
25435;SDS011;13363;52.772;-3.890;2022-12-20T09:03:43;20.33;;;3.83;;
25435;SDS011;13363;52.772;-3.890;2022-12-20T09:06:10;15.60;;;4.50;;
25435;SDS011;13363;52.772;-3.890;2022-12-20T09:08:38;14.43;;;3.73;;
25435;SDS011;13363;52.772;-3.890;2022-12-20T09:11:08;16.17;;;3.43;;
25435;SDS011;13363;52.772;-3.890;2022-12-20T09:13:43;13.63;;;3.77;;
25435;SDS011;13363;52.772;-3.890;2022-12-20T09:16:10;14.87;;;3.47;;
25435;SDS011;13363;52.772;-3.890;2022-12-20T09:18:37;9.47;;;2.70;;
25435;SDS011;13363;52.772;-3.890;2022-12-20T09:21:04;12.70;;;2.60;;
25435;SDS011;13363;52.772;-3.890;2022-12-20T09:23:32;14.60;;;3.47;;
25435;SDS011;13363;52.772;-3.890;2022-12-20T09:26:02;18.57;;;3.30;;
25435;SDS011;13363;52.772;-3.890;2022-12-20T09:28:38;13.10;;;3.17;;
25435;SDS011;13363;52.772;-3.890;2022-12-20T09:31:05;16.07;;;3.23;;
25435;SDS011;13363;52.772;-3.890;2022-12-20T09:33:32;26.00;;;4.37;;
25435;SDS011;13363;52.772;-3.890;2022-12-20T09:35:59;17.47;;;3.40;;
25435;SDS011;13363;52.772;-3.890;2022-12-20T09:38:26;15.63;;;4.27;;
25435;SDS011;13363;52.772;-3.890;2022-12-20T09:40:54;15.17;;;3.27;;
25435;SDS011;13363;52.772;-3.890;2022-12-20T09:43:25;13.87;;;3.50;;
25435;SDS011;13363;52.772;-3.890;2022-12-20T09:45:53;12.73;;;3.37;;
25435;SDS011;13363;52.772;-3.890;2022-12-20T09:48:25;16.77;;;3.70;;
25435;SDS011;13363;52.772;-3.890;2022-12-20T09:56:26;17.90;;;3.73;;
25435;SDS011;13363;52.772;-3.890;2022-12-20T09:59:01;13.40;;;2.83;;
25435;SDS011;13363;52.772;-3.890;2022-12-20T10:01:28;18.63;;;3.70;;
25435;SDS011;13363;52.772;-3.890;2022-12-20T10:03:57;20.23;;;4.33;;
25435;SDS011;13363;52.772;-3.890;2022-12-20T10:09:05;20.90;;;3.70;;
25435;SDS011;13363;52.772;-3.890;2022-12-20T10:14:58;13.80;;;3.10;;
25435;SDS011;13363;52.772;-3.890;2022-12-20T10:18:01;12.43;;;2.83;;
25435;SDS011;13363;52.772;-3.890;2022-12-20T10:23:15;6.07;;;1.47;;
25435;SDS011;13363;52.772;-3.890;2022-12-20T10:25:48;12.90;;;2.40;;
25435;SDS011;13363;52.772;-3.890;2022-12-20T10:28:17;11.00;;;3.30;;
25435;SDS011;13363;52.772;-3.890;2022-12-20T10:30:48;14.57;;;3.13;;
25435;SDS011;13363;52.772;-3.890;2022-12-20T10:33:22;14.07;;;3.53;;
25435;SDS011;13363;52.772;-3.890;2022-12-20T10:35:48;13.23;;;3.13;;
25435;SDS011;13363;52.772;-3.890;2022-12-20T10:38:15;13.40;;;3.40;;
25435;SDS011;13363;52.772;-3.890;2022-12-20T10:41:02;15.87;;;3.20;;
25435;SDS011;13363;52.772;-3.890;2022-12-20T10:43:36;15.53;;;3.47;;
25435;SDS011;13363;52.772;-3.890;2022-12-20T10:46:07;11.40;;;2.93;;
25435;SDS011;13363;52.772;-3.890;2022-12-20T10:48:37;19.67;;;3.43;;
25435;SDS011;13363;52.772;-3.890;2022-12-20T10:56:24;18.37;;;2.60;;
25435;SDS011;13363;52.772;-3.890;2022-12-20T10:58:55;16.13;;;2.30;;
25435;SDS011;13363;52.772;-3.890;2022-12-20T11:01:31;10.40;;;2.70;;
25435;SDS011;13363;52.772;-3.890;2022-12-20T11:04:01;11.13;;;3.73;;
25435;SDS011;13363;52.772;-3.890;2022-12-20T11:14:31;6.57;;;2.17;;
25435;SDS011;13363;52.772;-3.890;2022-12-20T11:16:59;9.57;;;2.40;;
25435;SDS011;13363;52.772;-3.890;2022-12-20T11:25:43;19.03;;;3.07;;
25435;SDS011;13363;52.772;-3.890;2022-12-20T11:28:28;16.63;;;3.10;;
25435;SDS011;13363;52.772;-3.890;2022-12-20T11:33:45;13.50;;;2.60;;
25435;SDS011;13363;52.772;-3.890;2022-12-20T11:42:21;9.80;;;2.90;;
25435;SDS011;13363;52.772;-3.890;2022-12-20T11:45:07;9.57;;;2.40;;
25435;SDS011;13363;52.772;-3.890;2022-12-20T11:50:41;10.53;;;3.53;;
25435;SDS011;13363;52.772;-3.890;2022-12-20T11:53:34;12.33;;;2.73;;
25435;SDS011;13363;52.772;-3.890;2022-12-20T11:56:17;6.40;;;2.83;;
25435;SDS011;13363;52.772;-3.890;2022-12-20T11:58:49;8.30;;;1.80;;
25435;SDS011;13363;52.772;-3.890;2022-12-20T12:01:21;7.87;;;2.73;;
25435;SDS011;13363;52.772;-3.890;2022-12-20T12:06:26;4.00;;;1.93;;
25435;SDS011;13363;52.772;-3.890;2022-12-20T12:09:10;14.47;;;3.23;;
25435;SDS011;13363;52.772;-3.890;2022-12-20T12:12:03;12.53;;;4.10;;
25435;SDS011;13363;52.772;-3.890;2022-12-20T12:17:45;15.30;;;3.93;;
25435;SDS011;13363;52.772;-3.890;2022-12-20T12:23:23;12.57;;;2.80;;
25435;SDS011;13363;52.772;-3.890;2022-12-20T12:25:53;11.63;;;3.13;;
25435;SDS011;13363;52.772;-3.890;2022-12-20T12:28:19;10.70;;;3.23;;
25435;SDS011;13363;52.772;-3.890;2022-12-20T12:30:49;8.30;;;2.87;;
25435;SDS011;13363;52.772;-3.890;2022-12-20T12:34:27;8.33;;;2.17;;
25435;SDS011;13363;52.772;-3.890;2022-12-20T12:48:06;18.67;;;3.40;;
25435;SDS011;13363;52.772;-3.890;2022-12-20T12:50:37;13.03;;;2.77;;
25435;SDS011;13363;52.772;-3.890;2022-12-20T12:53:11;7.77;;;2.33;;
25435;SDS011;13363;52.772;-3.890;2022-12-20T12:55:52;6.87;;;2.50;;
25435;SDS011;13363;52.772;-3.890;2022-12-20T13:03:40;9.20;;;2.90;;
25435;SDS011;13363;52.772;-3.890;2022-12-20T13:17:44;10.30;;;2.30;;
25435;SDS011;13363;52.772;-3.890;2022-12-20T13:19:50;11.83;;;2.53;;
25435;SDS011;13363;52.772;-3.890;2022-12-20T13:22:23;12.27;;;2.60;;
25435;SDS011;13363;52.772;-3.890;2022-12-20T13:27:44;13.13;;;3.10;;
25435;SDS011;13363;52.772;-3.890;2022-12-20T13:43:09;14.93;;;3.43;;
25435;SDS011;13363;52.772;-3.890;2022-12-20T13:45:39;15.00;;;4.07;;
25435;SDS011;13363;52.772;-3.890;2022-12-20T13:48:09;16.10;;;2.90;;
25435;SDS011;13363;52.772;-3.890;2022-12-20T13:50:50;36.97;;;4.80;;
25435;SDS011;13363;52.772;-3.890;2022-12-20T13:53:20;20.53;;;4.03;;
25435;SDS011;13363;52.772;-3.890;2022-12-20T13:55:49;21.37;;;4.40;;
25435;SDS011;13363;52.772;-3.890;2022-12-20T13:58:25;8.77;;;2.77;;
25435;SDS011;13363;52.772;-3.890;2022-12-20T14:01:05;19.07;;;4.40;;
25435;SDS011;13363;52.772;-3.890;2022-12-20T14:03:39;21.07;;;3.87;;
25435;SDS011;13363;52.772;-3.890;2022-12-20T14:06:09;18.07;;;3.77;;
25435;SDS011;13363;52.772;-3.890;2022-12-20T14:08:39;21.10;;;4.20;;
25435;SDS011;13363;52.772;-3.890;2022-12-20T14:13:59;12.77;;;2.77;;
25435;SDS011;13363;52.772;-3.890;2022-12-20T14:16:28;19.03;;;4.27;;
25435;SDS011;13363;52.772;-3.890;2022-12-20T14:21:29;20.33;;;4.93;;
25435;SDS011;13363;52.772;-3.890;2022-12-20T14:23:58;19.17;;;3.93;;
25435;SDS011;13363;52.772;-3.890;2022-12-20T14:26:29;20.47;;;5.67;;
25435;SDS011;13363;52.772;-3.890;2022-12-20T14:29:08;34.13;;;6.03;;
25435;SDS011;13363;52.772;-3.890;2022-12-20T14:31:44;19.90;;;4.57;;
25435;SDS011;13363;52.772;-3.890;2022-12-20T14:34:15;28.10;;;4.57;;
25435;SDS011;13363;52.772;-3.890;2022-12-20T14:36:46;28.07;;;6.23;;
25435;SDS011;13363;52.772;-3.890;2022-12-20T14:41:46;24.93;;;4.50;;
25435;SDS011;13363;52.772;-3.890;2022-12-20T14:44:23;17.93;;;3.63;;
25435;SDS011;13363;52.772;-3.890;2022-12-20T14:46:52;27.80;;;4.93;;
25435;SDS011;13363;52.772;-3.890;2022-12-20T14:49:26;21.70;;;4.30;;
25435;SDS011;13363;52.772;-3.890;2022-12-20T14:57:26;5.70;;;2.13;;
25435;SDS011;13363;52.772;-3.890;2022-12-20T14:59:58;15.30;;;4.17;;
25435;SDS011;13363;52.772;-3.890;2022-12-20T15:08:09;21.53;;;3.70;;
25435;SDS011;13363;52.772;-3.890;2022-12-20T15:10:40;15.03;;;3.57;;
25435;SDS011;13363;52.772;-3.890;2022-12-20T15:13:16;15.83;;;3.63;;
25435;SDS011;13363;52.772;-3.890;2022-12-20T15:15:44;19.63;;;3.83;;
25435;SDS011;13363;52.772;-3.890;2022-12-20T15:18:11;18.83;;;3.30;;
25435;SDS011;13363;52.772;-3.890;2022-12-20T15:20:41;16.17;;;3.70;;
25435;SDS011;13363;52.772;-3.890;2022-12-20T15:23:15;10.53;;;3.27;;
25435;SDS011;13363;52.772;-3.890;2022-12-20T15:25:45;19.17;;;3.53;;
25435;SDS011;13363;52.772;-3.890;2022-12-20T15:28:13;11.40;;;2.97;;
25435;SDS011;13363;52.772;-3.890;2022-12-20T15:30:47;16.33;;;3.40;;
25435;SDS011;13363;52.772;-3.890;2022-12-20T15:33:22;14.03;;;4.60;;
25435;SDS011;13363;52.772;-3.890;2022-12-20T15:35:51;19.77;;;3.80;;
25435;SDS011;13363;52.772;-3.890;2022-12-20T15:38:18;16.17;;;3.80;;
25435;SDS011;13363;52.772;-3.890;2022-12-20T15:40:46;17.10;;;4.23;;
25435;SDS011;13363;52.772;-3.890;2022-12-20T15:43:15;14.50;;;3.73;;
25435;SDS011;13363;52.772;-3.890;2022-12-20T15:45:43;19.17;;;4.23;;
25435;SDS011;13363;52.772;-3.890;2022-12-20T15:48:14;12.27;;;2.90;;
25435;SDS011;13363;52.772;-3.890;2022-12-20T15:50:57;19.97;;;3.60;;
25435;SDS011;13363;52.772;-3.890;2022-12-20T15:53:26;20.13;;;4.23;;
25435;SDS011;13363;52.772;-3.890;2022-12-20T15:55:55;12.63;;;3.23;;
25435;SDS011;13363;52.772;-3.890;2022-12-20T15:58:22;16.37;;;4.03;;
25435;SDS011;13363;52.772;-3.890;2022-12-20T16:00:48;19.63;;;4.43;;
25435;SDS011;13363;52.772;-3.890;2022-12-20T16:03:18;20.27;;;4.47;;
25435;SDS011;13363;52.772;-3.890;2022-12-20T16:05:48;15.37;;;4.50;;
25435;SDS011;13363;52.772;-3.890;2022-12-20T16:08:15;21.30;;;4.43;;
25435;SDS011;13363;52.772;-3.890;2022-12-20T16:10:43;18.33;;;4.57;;
25435;SDS011;13363;52.772;-3.890;2022-12-20T16:13:15;21.57;;;4.73;;
25435;SDS011;13363;52.772;-3.890;2022-12-20T16:15:50;20.17;;;4.17;;
25435;SDS011;13363;52.772;-3.890;2022-12-20T16:18:18;18.67;;;3.60;;
25435;SDS011;13363;52.772;-3.890;2022-12-20T16:20:44;18.93;;;4.00;;
25435;SDS011;13363;52.772;-3.890;2022-12-20T16:23:15;23.33;;;3.70;;
25435;SDS011;13363;52.772;-3.890;2022-12-20T16:25:49;18.73;;;4.30;;
25435;SDS011;13363;52.772;-3.890;2022-12-20T16:28:15;18.13;;;4.17;;
25435;SDS011;13363;52.772;-3.890;2022-12-20T16:30:42;15.47;;;3.93;;
25435;SDS011;13363;52.772;-3.890;2022-12-20T16:33:27;15.03;;;3.97;;
25435;SDS011;13363;52.772;-3.890;2022-12-20T16:35:53;18.00;;;3.77;;
25435;SDS011;13363;52.772;-3.890;2022-12-20T16:38:19;20.47;;;3.80;;
25435;SDS011;13363;52.772;-3.890;2022-12-20T16:40:45;19.17;;;4.13;;
25435;SDS011;13363;52.772;-3.890;2022-12-20T16:43:13;22.50;;;4.20;;
25435;SDS011;13363;52.772;-3.890;2022-12-20T16:45:40;16.50;;;3.60;;
25435;SDS011;13363;52.772;-3.890;2022-12-20T16:48:06;18.20;;;4.00;;
25435;SDS011;13363;52.772;-3.890;2022-12-20T16:50:32;18.20;;;4.20;;
25435;SDS011;13363;52.772;-3.890;2022-12-20T16:52:58;20.43;;;4.50;;
25435;SDS011;13363;52.772;-3.890;2022-12-20T16:55:24;17.20;;;4.87;;